Time;durP1;ratioP1;P1;durP2;ratioP2;P2;SDS_P1;SDS_P2;PMS_P1;PMS_P2;Temp;Humidity;BMP_temperature;BMP_pressure;BME280_temperature;BME280_humidity;BME280_pressure;Samples;Min_cycle;Max_cycle;Signal;HPM_P1;HPM_P2
2023/03/24 00:00:17;;;;;;;13.98;6.47;;;11.40;99.90;;;;;;5034973;28;20424;-72
2023/03/24 00:02:45;;;;;;;15.35;5.88;;;11.40;99.90;;;;;;5000969;28;20033;-72
2023/03/24 00:05:14;;;;;;;14.60;6.28;;;11.40;99.90;;;;;;5035282;28;20059;-71
2023/03/24 00:07:40;;;;;;;13.27;5.57;;;11.50;99.90;;;;;;5034488;28;20135;-71
2023/03/24 00:10:08;;;;;;;15.38;5.97;;;11.50;99.90;;;;;;5031423;28;20084;-71
2023/03/24 00:12:37;;;;;;;12.90;6.35;;;11.40;99.90;;;;;;5034120;28;20045;-72
2023/03/24 00:15:09;;;;;;;14.60;6.72;;;11.30;99.90;;;;;;5005210;28;20033;-72
2023/03/24 00:17:35;;;;;;;12.00;5.90;;;11.30;99.90;;;;;;5034321;28;20101;-72
2023/03/24 00:20:14;;;;;;;11.07;5.75;;;11.30;99.90;;;;;;5032102;28;20419;-72
2023/03/24 00:22:49;;;;;;;15.00;6.22;;;11.30;99.90;;;;;;5035493;28;20052;-71
2023/03/24 00:25:18;;;;;;;13.75;6.38;;;11.40;99.90;;;;;;5026855;28;20770;-71
2023/03/24 00:27:47;;;;;;;12.60;5.88;;;11.30;99.90;;;;;;5014455;28;20057;-72
2023/03/24 00:30:15;;;;;;;14.05;6.82;;;11.40;99.90;;;;;;5025781;28;20513;-71
2023/03/24 00:32:40;;;;;;;13.93;6.28;;;11.40;99.90;;;;;;5032317;28;20051;-71
2023/03/24 00:35:09;;;;;;;16.50;6.55;;;11.30;99.90;;;;;;5036208;28;20041;-73
2023/03/24 00:37:38;;;;;;;14.50;6.63;;;11.20;99.90;;;;;;5042489;28;20049;-71
2023/03/24 00:40:12;;;;;;;17.85;6.32;;;11.20;99.90;;;;;;5025566;28;20037;-72
2023/03/24 00:42:40;;;;;;;14.23;6.95;;;11.30;99.90;;;;;;5023654;28;20053;-72
2023/03/24 00:45:08;;;;;;;19.65;7.60;;;11.20;99.90;;;;;;5032949;28;20416;-71
2023/03/24 00:47:37;;;;;;;15.57;6.85;;;11.30;99.90;;;;;;5039302;28;23305;-72
2023/03/24 00:50:05;;;;;;;12.70;6.25;;;11.30;99.90;;;;;;5039280;28;20067;-72
2023/03/24 00:52:32;;;;;;;10.50;6.03;;;11.20;99.90;;;;;;5041489;28;20053;-72
2023/03/24 00:55:00;;;;;;;15.25;6.13;;;11.30;99.90;;;;;;5036599;28;20041;-71
2023/03/24 00:57:28;;;;;;;13.00;6.18;;;11.20;99.90;;;;;;5027331;28;20519;-72
2023/03/24 00:59:56;;;;;;;12.20;5.90;;;11.40;99.90;;;;;;5032397;28;20041;-72
2023/03/24 01:02:23;;;;;;;11.60;5.43;;;11.30;99.90;;;;;;5031392;28;20033;-73
2023/03/24 01:05:01;;;;;;;10.00;5.43;;;11.30;99.90;;;;;;5023380;28;20057;-72
2023/03/24 01:07:28;;;;;;;16.20;6.03;;;11.20;99.90;;;;;;5031953;28;20060;-72
2023/03/24 01:09:57;;;;;;;11.32;5.70;;;11.20;99.90;;;;;;5034448;28;20073;-73
2023/03/24 01:12:33;;;;;;;14.10;5.75;;;11.20;99.90;;;;;;5032680;28;20044;-73
2023/03/24 01:15:01;;;;;;;10.75;6.22;;;11.40;99.90;;;;;;5016417;28;20045;-71
2023/03/24 01:17:29;;;;;;;11.20;5.80;;;11.30;99.90;;;;;;5033347;28;20033;-76
2023/03/24 01:19:55;;;;;;;12.68;5.88;;;11.40;99.90;;;;;;5032692;28;20075;-72
2023/03/24 01:22:26;;;;;;;10.82;5.88;;;11.40;99.90;;;;;;5022606;28;20050;-71
2023/03/24 01:24:52;;;;;;;17.48;5.97;;;11.40;99.90;;;;;;5013259;28;20051;-71
2023/03/24 01:27:17;;;;;;;12.00;6.53;;;11.30;99.90;;;;;;5022239;28;20037;-71
2023/03/24 01:29:43;;;;;;;11.57;5.75;;;11.40;99.90;;;;;;5034676;28;20045;-72
2023/03/24 01:32:09;;;;;;;10.95;6.38;;;11.30;99.90;;;;;;4999725;28;20400;-71
2023/03/24 01:34:34;;;;;;;12.45;5.78;;;11.30;99.90;;;;;;5030127;28;20370;-71
2023/03/24 01:37:00;;;;;;;12.45;5.75;;;11.30;99.90;;;;;;5033335;28;20070;-71
2023/03/24 01:39:27;;;;;;;11.68;6.18;;;11.50;99.90;;;;;;5041626;28;20049;-72
2023/03/24 01:41:53;;;;;;;11.60;6.50;;;11.50;99.90;;;;;;5038094;28;20044;-72
2023/03/24 01:44:37;;;;;;;9.70;5.00;;;11.40;99.90;;;;;;5036983;28;20727;-73
2023/03/24 01:47:06;;;;;;;10.70;6.70;;;11.40;99.90;;;;;;5029801;28;20413;-72
2023/03/24 01:49:53;;;;;;;10.05;6.00;;;11.50;99.90;;;;;;5029832;28;20060;-72
2023/03/24 01:52:31;;;;;;;11.80;5.90;;;11.40;99.90;;;;;;5032362;28;20057;-72
2023/03/24 01:55:01;;;;;;;11.63;5.82;;;11.30;99.90;;;;;;5015263;28;20087;-71
2023/03/24 01:57:34;;;;;;;9.95;5.63;;;11.30;99.90;;;;;;5025149;28;20076;-71
2023/03/24 02:00:03;;;;;;;;;;;11.40;99.90;;;;;;5002502;28;20061;-70
2023/03/24 02:02:33;;;;;;;9.18;4.97;;;11.40;99.90;;;;;;5028340;28;19920;-71
2023/03/24 02:05:04;;;;;;;14.20;5.55;;;11.30;99.90;;;;;;5025412;28;20055;-70
2023/03/24 02:07:55;;;;;;;9.48;5.20;;;11.50;99.90;;;;;;5034125;28;20045;-70
2023/03/24 02:10:22;;;;;;;13.30;5.70;;;11.50;99.90;;;;;;5036769;28;20053;-70
2023/03/24 02:12:48;;;;;;;10.35;5.35;;;11.40;99.90;;;;;;5020184;28;20142;-70
2023/03/24 02:15:15;;;;;;;10.25;6.10;;;11.50;99.90;;;;;;5018815;28;20049;-72
2023/03/24 02:17:55;;;;;;;12.15;6.72;;;11.40;99.90;;;;;;5027945;28;20168;-72
2023/03/24 02:20:49;;;;;;;10.18;6.00;;;11.40;99.90;;;;;;5034879;28;20060;-72
2023/03/24 02:23:21;;;;;;;;;;;11.50;99.90;;;;;;5035378;28;20045;-72
2023/03/24 02:26:05;;;;;;;10.00;5.22;;;11.50;99.90;;;;;;5036703;28;19928;-72
2023/03/24 02:28:42;;;;;;;8.45;4.63;;;11.40;99.90;;;;;;5033827;28;20048;-71
2023/03/24 02:32:01;;;;;;;9.15;5.50;;;11.50;99.90;;;;;;5009861;28;20548;-71
2023/03/24 02:34:32;;;;;;;10.25;4.90;;;11.60;99.90;;;;;;4947367;28;20054;-72
2023/03/24 02:37:20;;;;;;;11.27;6.40;;;11.50;99.90;;;;;;5005023;28;20037;-71
2023/03/24 02:40:11;;;;;;;9.02;5.18;;;11.50;99.90;;;;;;5015164;28;20152;-70
2023/03/24 02:43:10;;;;;;;5.80;3.28;;;11.40;99.90;;;;;;5035286;28;20043;-71
2023/03/24 02:45:45;;;;;;;5.90;3.78;;;11.40;99.90;;;;;;4978919;28;20065;-71
2023/03/24 02:48:16;;;;;;;6.63;3.95;;;11.40;99.90;;;;;;5018982;28;20047;-70
2023/03/24 02:50:49;;;;;;;7.10;3.78;;;11.40;99.90;;;;;;5034613;28;20045;-71
2023/03/24 02:53:32;;;;;;;6.50;3.13;;;11.50;99.90;;;;;;5017761;28;20142;-70
2023/03/24 02:56:11;;;;;;;10.77;4.20;;;11.40;99.90;;;;;;5041673;28;20069;-70
2023/03/24 02:58:53;;;;;;;6.20;3.20;;;11.50;99.90;;;;;;5045587;28;20057;-72
2023/03/24 03:01:30;;;;;;;10.60;3.70;;;11.30;99.90;;;;;;5019701;28;20409;-70
2023/03/24 03:04:01;;;;;;;5.47;2.38;;;11.20;99.90;;;;;;5025876;28;20037;-70
2023/03/24 03:06:32;;;;;;;8.77;2.20;;;11.30;99.90;;;;;;5035014;28;20046;-69
2023/03/24 03:09:01;;;;;;;7.70;3.40;;;11.10;99.90;;;;;;5035216;28;20047;-70
2023/03/24 03:11:27;;;;;;;3.95;1.50;;;11.00;99.90;;;;;;5023466;28;20045;-70
2023/03/24 03:14:09;;;;;;;3.15;1.17;;;10.90;99.90;;;;;;5004721;28;20045;-69
2023/03/24 03:16:58;;;;;;;6.45;1.67;;;11.00;99.90;;;;;;5033413;28;20054;-69
2023/03/24 03:19:36;;;;;;;7.88;2.10;;;11.00;99.90;;;;;;5017770;28;20045;-70
2023/03/24 03:22:06;;;;;;;11.40;2.42;;;10.80;99.90;;;;;;5035837;28;20544;-70
2023/03/24 03:24:38;;;;;;;7.88;2.40;;;10.80;99.90;;;;;;5037223;28;20052;-70
2023/03/24 03:27:13;;;;;;;11.63;2.00;;;10.80;99.90;;;;;;5034839;28;20497;-70
2023/03/24 03:29:45;;;;;;;8.55;1.95;;;10.70;99.90;;;;;;5037292;28;20033;-70
2023/03/24 03:32:23;;;;;;;8.60;1.98;;;10.70;99.90;;;;;;5019402;28;20065;-70
2023/03/24 03:35:04;;;;;;;7.97;2.55;;;10.60;99.90;;;;;;5012815;28;20053;-70
2023/03/24 03:37:56;;;;;;;7.55;2.13;;;10.60;99.90;;;;;;5009303;28;20107;-71
2023/03/24 03:40:39;;;;;;;4.82;1.58;;;10.60;99.90;;;;;;5032099;28;20073;-70
2023/03/24 03:43:05;;;;;;;8.93;1.98;;;10.50;99.90;;;;;;5015296;28;20053;-69
2023/03/24 03:45:33;;;;;;;11.88;3.78;;;10.50;99.90;;;;;;5032356;28;20111;-70
2023/03/24 03:48:00;;;;;;;7.03;1.85;;;10.50;99.90;;;;;;5028408;28;20103;-71
2023/03/24 03:50:27;;;;;;;10.98;2.17;;;10.40;99.90;;;;;;5033290;28;20044;-69
2023/03/24 03:52:52;;;;;;;9.15;2.17;;;10.50;99.90;;;;;;5033888;28;20499;-69
2023/03/24 03:55:18;;;;;;;9.52;3.20;;;10.30;99.90;;;;;;5000729;28;20136;-70
2023/03/24 03:57:45;;;;;;;7.72;1.90;;;10.30;99.90;;;;;;5032239;28;20052;-70
2023/03/24 04:00:15;;;;;;;11.95;1.83;;;10.20;99.90;;;;;;5034954;28;20060;-71
2023/03/24 04:03:01;;;;;;;10.18;1.65;;;10.20;99.90;;;;;;5041817;28;20076;-70
2023/03/24 04:05:35;;;;;;;10.43;2.30;;;10.20;99.90;;;;;;5024766;28;20041;-70
2023/03/24 04:08:31;;;;;;;9.38;2.17;;;10.00;99.90;;;;;;5040048;28;20051;-70
2023/03/24 04:10:56;;;;;;;11.18;2.22;;;9.90;99.90;;;;;;5028805;28;20424;-70
2023/03/24 04:13:34;;;;;;;10.68;2.30;;;9.90;99.90;;;;;;5037041;28;20045;-70
2023/03/24 04:16:22;;;;;;;13.55;2.38;;;9.80;99.90;;;;;;5041343;28;20061;-70
2023/03/24 04:19:13;;;;;;;17.08;2.38;;;9.80;99.90;;;;;;5020139;28;20063;-70
2023/03/24 04:21:50;;;;;;;8.82;2.50;;;9.70;99.90;;;;;;4988730;28;20569;-70
2023/03/24 04:24:38;;;;;;;11.13;2.38;;;9.60;99.90;;;;;;5020250;28;20040;-70
2023/03/24 04:27:37;;;;;;;12.23;2.30;;;9.70;99.90;;;;;;5040664;28;20036;-70
2023/03/24 04:30:32;;;;;;;13.20;2.40;;;9.60;99.90;;;;;;5035988;28;20048;-70
2023/03/24 04:33:29;;;;;;;11.05;2.45;;;9.50;99.90;;;;;;5009684;28;20049;-68
2023/03/24 04:36:05;;;;;;;11.23;2.58;;;9.50;99.90;;;;;;5024829;28;20091;-69
2023/03/24 04:38:35;;;;;;;10.23;2.92;;;9.50;99.90;;;;;;5022859;28;20064;-69
2023/03/24 04:41:02;;;;;;;10.52;2.40;;;9.50;99.90;;;;;;5043231;28;20152;-69
2023/03/24 04:43:35;;;;;;;14.50;3.30;;;9.50;99.90;;;;;;5039332;28;20048;-69
2023/03/24 04:46:04;;;;;;;13.23;2.40;;;9.40;99.90;;;;;;5042037;28;20069;-69
2023/03/24 04:48:30;;;;;;;14.18;3.20;;;9.40;99.90;;;;;;5038039;28;20047;-68
2023/03/24 04:50:58;;;;;;;15.40;3.70;;;9.50;99.90;;;;;;5041717;28;20045;-69
2023/03/24 04:53:25;;;;;;;11.80;2.85;;;9.40;99.90;;;;;;5025013;28;20083;-69
2023/03/24 04:56:18;;;;;;;14.63;2.90;;;9.30;99.90;;;;;;5008759;28;20060;-70
2023/03/24 04:58:43;;;;;;;22.67;3.47;;;9.30;99.90;;;;;;5023975;28;20040;-69
2023/03/24 05:01:09;;;;;;;15.40;3.67;;;9.30;99.90;;;;;;5039654;28;20127;-70
2023/03/24 05:03:36;;;;;;;18.65;3.70;;;9.30;99.90;;;;;;5022902;28;20083;-69
2023/03/24 05:06:04;;;;;;;18.15;3.30;;;9.30;99.90;;;;;;5023898;28;20056;-69
2023/03/24 05:08:31;;;;;;;26.35;3.92;;;9.30;99.90;;;;;;5039888;28;20110;-69
2023/03/24 05:10:57;;;;;;;16.38;3.55;;;9.30;99.90;;;;;;5033570;28;20474;-69
2023/03/24 05:13:22;;;;;;;18.00;3.80;;;9.20;99.90;;;;;;5042800;28;20041;-69
2023/03/24 05:15:48;;;;;;;14.38;2.63;;;9.20;99.90;;;;;;5044619;28;20190;-69
2023/03/24 05:18:14;;;;;;;12.23;3.50;;;9.20;99.90;;;;;;5030972;28;20042;-69
2023/03/24 05:20:40;;;;;;;9.73;2.47;;;9.10;99.90;;;;;;5003666;28;20053;-69
2023/03/24 05:23:06;;;;;;;13.35;2.78;;;9.20;99.90;;;;;;5042395;28;20041;-68
2023/03/24 05:25:32;;;;;;;12.48;3.83;;;9.20;99.90;;;;;;5038340;28;20127;-69
2023/03/24 05:27:58;;;;;;;12.80;2.92;;;9.10;99.90;;;;;;5003695;28;20433;-70
2023/03/24 05:30:24;;;;;;;16.00;2.72;;;9.20;99.90;;;;;;5033027;28;20130;-70
2023/03/24 05:32:50;;;;;;;16.27;2.58;;;9.10;99.90;;;;;;5037451;28;20084;-70
2023/03/24 05:35:15;;;;;;;14.48;2.90;;;9.10;99.90;;;;;;5022222;28;20098;-70
2023/03/24 05:37:41;;;;;;;20.27;3.03;;;9.00;99.90;;;;;;5039125;28;20528;-71
2023/03/24 05:40:08;;;;;;;15.25;3.00;;;9.00;99.90;;;;;;5023437;28;20582;-71
2023/03/24 05:42:33;;;;;;;10.27;2.40;;;8.90;99.90;;;;;;5023454;28;20040;-71
2023/03/24 05:44:59;;;;;;;15.30;3.00;;;9.00;99.90;;;;;;5032405;28;20171;-74
2023/03/24 05:47:26;;;;;;;16.33;2.95;;;8.90;99.90;;;;;;5024247;28;20592;-74
2023/03/24 05:49:51;;;;;;;14.20;2.85;;;9.00;99.90;;;;;;5043519;28;20047;-73
2023/03/24 05:52:19;;;;;;;17.33;2.42;;;9.00;99.90;;;;;;5011872;28;20052;-73
2023/03/24 05:54:48;;;;;;;12.98;2.95;;;9.00;99.90;;;;;;5040893;28;20485;-74
2023/03/24 05:57:15;;;;;;;16.13;3.90;;;8.90;99.90;;;;;;5043595;28;20124;-74
2023/03/24 05:59:41;;;;;;;16.50;3.13;;;9.00;99.90;;;;;;5042558;28;20041;-74
2023/03/24 06:02:06;;;;;;;10.88;2.25;;;9.00;99.90;;;;;;5022807;28;20083;-74
2023/03/24 06:04:32;;;;;;;12.95;2.95;;;9.10;99.90;;;;;;5025110;28;20131;-74
2023/03/24 06:06:59;;;;;;;13.20;2.55;;;9.10;99.90;;;;;;5009602;28;20048;-74
2023/03/24 06:09:27;;;;;;;11.63;2.15;;;8.90;99.90;;;;;;5034428;28;20060;-74
2023/03/24 06:11:56;;;;;;;20.05;3.10;;;9.00;99.90;;;;;;5046051;28;20145;-74
2023/03/24 06:14:21;;;;;;;13.25;2.83;;;9.10;99.90;;;;;;5040568;28;20115;-76
2023/03/24 06:16:50;;;;;;;19.58;3.38;;;9.00;99.90;;;;;;5041948;28;20069;-85
2023/03/24 06:19:16;;;;;;;16.05;2.67;;;9.00;99.90;;;;;;5005551;28;20187;-82
2023/03/24 06:21:43;;;;;;;14.23;2.97;;;9.10;99.90;;;;;;5030002;28;20041;-83
2023/03/24 06:24:13;;;;;;;15.20;2.85;;;9.00;99.90;;;;;;5041165;28;20102;-83
2023/03/24 06:26:43;;;;;;;13.63;2.70;;;9.10;99.90;;;;;;5029628;28;20037;-83
2023/03/24 06:29:09;;;;;;;24.92;3.53;;;9.10;99.90;;;;;;5027942;28;20041;-80
2023/03/24 06:31:36;;;;;;;14.07;2.80;;;9.20;99.90;;;;;;5043344;28;20037;-83
2023/03/24 06:34:03;;;;;;;22.95;3.65;;;9.20;99.90;;;;;;5044308;28;20052;-80
2023/03/24 06:36:29;;;;;;;15.35;2.75;;;9.30;99.90;;;;;;5046216;28;20037;-82
2023/03/24 06:38:55;;;;;;;13.15;3.17;;;9.30;99.90;;;;;;5046398;28;20107;-84
2023/03/24 06:41:21;;;;;;;4.38;1.30;;;9.40;99.90;;;;;;5045672;28;20120;-83
2023/03/24 06:43:47;;;;;;;14.48;3.42;;;9.30;99.90;;;;;;5040107;28;20064;-85
2023/03/24 06:46:13;;;;;;;19.40;3.47;;;9.40;99.90;;;;;;5022219;28;20080;-83
2023/03/24 06:48:39;;;;;;;17.60;2.60;;;9.40;99.90;;;;;;5021366;28;20057;-82
2023/03/24 06:51:05;;;;;;;12.85;2.38;;;9.40;99.90;;;;;;5041802;28;20051;-72
2023/03/24 06:53:31;;;;;;;14.02;3.33;;;9.40;99.90;;;;;;5039864;28;20040;-73
2023/03/24 06:55:57;;;;;;;16.88;3.47;;;9.50;99.90;;;;;;5035276;28;20052;-72
2023/03/24 06:58:22;;;;;;;16.30;3.08;;;9.50;99.90;;;;;;5040857;28;20048;-73
2023/03/24 07:00:49;;;;;;;8.65;2.65;;;9.60;99.90;;;;;;5033009;28;20077;-72
2023/03/24 07:03:15;;;;;;;21.30;3.95;;;9.70;99.90;;;;;;5036392;28;20205;-72
2023/03/24 07:05:43;;;;;;;25.08;5.53;;;9.60;99.90;;;;;;5034861;28;20045;-73
2023/03/24 07:08:10;;;;;;;11.88;3.22;;;9.80;99.90;;;;;;5042498;28;20040;-73
2023/03/24 07:10:38;;;;;;;16.08;3.72;;;9.80;99.90;;;;;;5038179;28;20037;-73
2023/03/24 07:13:04;;;;;;;22.80;3.95;;;9.80;99.90;;;;;;5040748;28;20118;-73
2023/03/24 07:15:30;;;;;;;18.35;3.65;;;9.80;99.90;;;;;;5037857;28;20111;-73
2023/03/24 07:17:56;;;;;;;18.25;3.42;;;9.80;99.90;;;;;;5035582;28;20079;-73
2023/03/24 07:20:22;;;;;;;20.55;3.95;;;9.80;99.90;;;;;;5040707;28;20068;-73
2023/03/24 07:22:48;;;;;;;9.43;2.25;;;9.80;99.90;;;;;;5044965;28;20056;-74
2023/03/24 07:25:18;;;;;;;17.58;3.53;;;9.80;99.90;;;;;;5036224;28;20488;-76
2023/03/24 07:27:45;;;;;;;21.08;3.80;;;9.90;99.90;;;;;;5038483;28;20044;-73
2023/03/24 07:30:12;;;;;;;24.77;3.20;;;9.90;99.90;;;;;;5046600;28;20049;-74
2023/03/24 07:32:38;;;;;;;23.60;4.40;;;9.90;99.90;;;;;;5037498;28;20127;-73
2023/03/24 07:35:15;;;;;;;16.95;3.15;;;9.90;99.90;;;;;;5051994;28;20049;-72
2023/03/24 07:37:41;;;;;;;17.75;3.78;;;9.90;99.90;;;;;;5023855;28;20048;-72
2023/03/24 07:40:10;;;;;;;23.95;3.47;;;10.00;99.90;;;;;;5042588;28;20048;-73
2023/03/24 07:42:40;;;;;;;24.25;4.13;;;10.00;99.90;;;;;;5046783;28;20045;-73
2023/03/24 07:45:10;;;;;;;23.35;4.25;;;10.00;99.90;;;;;;5053419;28;20563;-72
2023/03/24 07:47:37;;;;;;;20.52;3.67;;;10.10;99.90;;;;;;5046373;28;20041;-73
2023/03/24 07:50:08;;;;;;;22.58;3.95;;;10.10;99.90;;;;;;5044982;28;20516;-74
2023/03/24 07:52:39;;;;;;;21.52;4.32;;;10.20;99.90;;;;;;5069341;28;20040;-79
2023/03/24 07:55:10;;;;;;;22.85;4.28;;;10.30;99.90;;;;;;5022589;28;20044;-78
2023/03/24 07:57:37;;;;;;;23.13;3.88;;;10.40;99.90;;;;;;5045336;28;20064;-77
2023/03/24 08:00:16;;;;;;;33.22;4.15;;;10.50;99.90;;;;;;5047695;28;20056;-78
2023/03/24 08:02:44;;;;;;;23.55;4.30;;;10.50;99.90;;;;;;5033574;28;20072;-79
2023/03/24 08:05:13;;;;;;;29.05;5.78;;;10.60;99.90;;;;;;5057100;28;20990;-77
2023/03/24 08:07:43;;;;;;;20.17;4.18;;;10.60;99.90;;;;;;5041697;28;20547;-79
2023/03/24 08:10:13;;;;;;;24.25;5.00;;;10.70;99.90;;;;;;5046417;28;20582;-78
2023/03/24 08:12:39;;;;;;;25.20;4.40;;;10.70;99.90;;;;;;5046127;28;20654;-80
2023/03/24 08:15:07;;;;;;;27.55;4.70;;;10.70;99.90;;;;;;5039330;28;20090;-75
2023/03/24 08:17:33;;;;;;;21.10;4.72;;;10.80;99.90;;;;;;5044115;28;20488;-78
2023/03/24 08:20:00;;;;;;;26.23;5.30;;;10.80;99.90;;;;;;5036950;28;20075;-78
2023/03/24 08:22:26;;;;;;;32.03;4.97;;;10.70;99.90;;;;;;5039032;28;20049;-76
2023/03/24 08:24:52;;;;;;;19.58;4.03;;;10.70;99.90;;;;;;5038967;28;20053;-76
2023/03/24 08:27:17;;;;;;;23.35;4.13;;;10.60;99.90;;;;;;5036092;28;20049;-76
2023/03/24 08:29:43;;;;;;;23.88;4.25;;;10.70;99.90;;;;;;5043845;28;20059;-75
2023/03/24 08:32:09;;;;;;;23.58;5.03;;;10.60;99.90;;;;;;5028595;28;20064;-75
2023/03/24 08:34:34;;;;;;;15.63;3.08;;;10.70;99.90;;;;;;5018047;28;20413;-76
2023/03/24 08:37:01;;;;;;;24.63;3.78;;;10.80;99.90;;;;;;5038844;28;20455;-72
2023/03/24 08:39:27;;;;;;;24.20;4.40;;;10.80;99.90;;;;;;5020979;28;20044;-76
2023/03/24 08:41:53;;;;;;;17.40;3.40;;;10.80;99.90;;;;;;5052951;28;20086;-75
2023/03/24 08:44:19;;;;;;;15.20;3.67;;;11.00;99.90;;;;;;5036109;28;20060;-75
2023/03/24 08:46:45;;;;;;;29.48;5.50;;;11.10;99.90;;;;;;5036321;28;20037;-76
2023/03/24 08:49:11;;;;;;;20.60;3.35;;;11.10;99.90;;;;;;5037938;28;20048;-76
2023/03/24 08:51:37;;;;;;;19.70;3.80;;;11.20;99.90;;;;;;5043911;28;20059;-76
2023/03/24 08:54:04;;;;;;;13.25;2.80;;;11.10;99.90;;;;;;5035743;28;20049;-76
2023/03/24 08:56:30;;;;;;;16.42;3.85;;;11.00;99.90;;;;;;5034215;28;20037;-76
2023/03/24 08:58:56;;;;;;;12.13;2.65;;;11.00;99.90;;;;;;5041483;28;20515;-76
2023/03/24 09:01:23;;;;;;;18.95;3.60;;;11.00;99.90;;;;;;5038740;28;20052;-76
2023/03/24 09:03:49;;;;;;;26.55;4.38;;;11.10;99.90;;;;;;5024374;28;20049;-76
2023/03/24 09:06:15;;;;;;;28.23;4.65;;;11.10;99.90;;;;;;5030999;28;20045;-76
2023/03/24 09:08:41;;;;;;;25.92;4.22;;;11.20;99.90;;;;;;5048823;28;20119;-75
2023/03/24 09:11:16;;;;;;;19.65;4.38;;;11.20;99.90;;;;;;5044845;28;20148;-75
2023/03/24 09:13:42;;;;;;;18.42;4.07;;;11.30;99.90;;;;;;5034203;28;20045;-75
2023/03/24 09:16:10;;;;;;;13.20;3.20;;;11.40;99.90;;;;;;5042393;28;20373;-76
2023/03/24 09:18:36;;;;;;;25.33;3.45;;;11.50;99.90;;;;;;5044592;28;20054;-75
2023/03/24 09:21:02;;;;;;;20.02;3.42;;;11.40;99.90;;;;;;5039797;28;20049;-74
2023/03/24 09:23:29;;;;;;;19.27;4.13;;;11.40;99.90;;;;;;5020204;28;20054;-76
2023/03/24 09:25:55;;;;;;;14.95;2.92;;;11.40;99.90;;;;;;5034316;28;20041;-76
2023/03/24 09:28:21;;;;;;;15.18;2.65;;;11.40;99.90;;;;;;5039165;28;20059;-75
2023/03/24 09:30:49;;;;;;;20.45;3.75;;;11.50;99.90;;;;;;5031854;28;20028;-76
2023/03/24 09:33:15;;;;;;;17.50;3.67;;;11.60;99.90;;;;;;5032282;28;20084;-77
2023/03/24 09:35:41;;;;;;;8.15;2.03;;;11.70;99.90;;;;;;5016257;28;20036;-77
2023/03/24 09:38:10;;;;;;;17.85;3.50;;;11.70;99.90;;;;;;5034259;28;20044;-77
2023/03/24 09:40:39;;;;;;;19.25;3.72;;;11.80;99.90;;;;;;5043516;28;20044;-78
2023/03/24 09:43:23;;;;;;;14.43;2.80;;;11.80;99.90;;;;;;5046295;28;20040;-77
2023/03/24 09:45:55;;;;;;;14.18;2.80;;;11.80;99.90;;;;;;5041793;28;20067;-78
2023/03/24 09:48:43;;;;;;;12.80;2.65;;;11.80;99.90;;;;;;5039821;28;20072;-77
2023/03/24 09:51:22;;;;;;;16.73;4.40;;;11.90;99.90;;;;;;5016139;28;20053;-77
2023/03/24 09:53:53;;;;;;;17.90;3.97;;;12.10;99.90;;;;;;5017148;28;20111;-78
2023/03/24 09:56:22;;;;;;;23.25;4.75;;;12.10;99.90;;;;;;5038709;28;20045;-78
2023/03/24 09:58:57;;;;;;;16.90;5.15;;;12.30;99.90;;;;;;5006166;28;20045;-78
2023/03/24 10:01:23;;;;;;;18.55;2.80;;;12.30;99.90;;;;;;5038594;28;20041;-78
2023/03/24 10:03:48;;;;;;;19.00;2.80;;;12.30;99.90;;;;;;5027247;28;20508;-77
2023/03/24 10:06:24;;;;;;;15.52;3.20;;;12.30;99.90;;;;;;5021165;28;20048;-78
2023/03/24 10:09:28;;;;;;;14.32;3.45;;;12.30;99.90;;;;;;5030464;28;20052;-78
2023/03/24 10:12:21;;;;;;;6.38;2.40;;;12.30;99.90;;;;;;5038387;28;20041;-78
2023/03/24 10:15:05;;;;;;;16.52;3.58;;;12.20;99.90;;;;;;5033985;28;20300;-78
2023/03/24 10:17:53;;;;;;;15.00;3.42;;;12.30;99.90;;;;;;5037529;28;20067;-79
2023/03/24 10:20:29;;;;;;;13.20;3.00;;;12.30;99.90;;;;;;5038022;28;20052;-79
2023/03/24 10:23:26;;;;;;;22.48;3.53;;;12.40;99.90;;;;;;5039417;28;20073;-78
2023/03/24 10:26:19;;;;;;;16.52;3.17;;;12.40;99.90;;;;;;5032416;28;20073;-79
2023/03/24 10:29:18;;;;;;;11.38;3.65;;;12.50;99.90;;;;;;5033507;28;20452;-78
2023/03/24 10:32:02;;;;;;;14.35;2.97;;;12.50;99.90;;;;;;5034563;28;20030;-79
2023/03/24 10:34:31;;;;;;;11.55;2.80;;;12.60;99.90;;;;;;5048297;28;20037;-79
2023/03/24 10:36:59;;;;;;;20.08;4.43;;;12.60;99.90;;;;;;5031630;28;20037;-78
2023/03/24 10:39:25;;;;;;;19.52;4.38;;;12.70;99.90;;;;;;5036101;28;20091;-81
2023/03/24 10:41:53;;;;;;;22.95;4.22;;;12.90;99.90;;;;;;5044720;28;21735;-79
2023/03/24 10:44:20;;;;;;;16.77;2.85;;;12.90;99.90;;;;;;5046924;28;20048;-80
2023/03/24 10:46:51;;;;;;;13.52;3.08;;;12.70;99.90;;;;;;5027117;28;20543;-79
2023/03/24 10:49:19;;;;;;;19.60;3.33;;;12.70;99.90;;;;;;5040872;28;23316;-78
2023/03/24 10:51:48;;;;;;;15.50;3.58;;;12.60;99.90;;;;;;5040913;28;20120;-74
2023/03/24 10:54:23;;;;;;;11.68;3.30;;;12.70;99.90;;;;;;5044675;28;20052;-75
2023/03/24 11:00:00;;;;;;;15.63;2.33;;;13.00;99.90;;;;;;5427465;23;20041;-78
2023/03/24 11:02:29;;;;;;;36.15;4.22;;;13.00;99.90;;;;;;5027963;28;20496;-73
2023/03/24 11:12:54;;;;;;;20.58;3.63;;;12.70;99.90;;;;;;4971047;28;20120;-67
2023/03/24 11:15:22;;;;;;;15.65;3.10;;;12.60;99.90;;;;;;4948273;28;20144;-68
2023/03/24 11:18:02;;;;;;;17.40;4.10;;;12.60;99.90;;;;;;4943135;28;20078;-69
2023/03/24 11:20:37;;;;;;;15.15;2.90;;;12.60;99.90;;;;;;4949828;28;20046;-68
2023/03/24 11:25:34;;;;;;;15.52;3.20;;;12.80;99.90;;;;;;4994854;28;20049;-69
2023/03/24 11:28:07;;;;;;;18.88;4.68;;;12.90;99.90;;;;;;4970265;28;20038;-70
2023/03/24 11:30:44;;;;;;;20.33;3.92;;;12.90;99.90;;;;;;4990245;28;20528;-69
2023/03/24 11:33:19;;;;;;;12.43;2.83;;;13.00;99.90;;;;;;4986257;28;20093;-68
2023/03/24 11:35:45;;;;;;;15.93;2.58;;;12.90;99.90;;;;;;5002054;28;20042;-69
2023/03/24 11:38:16;;;;;;;24.88;4.13;;;13.00;99.90;;;;;;5004805;28;20046;-69
2023/03/24 11:40:57;;;;;;;17.85;3.58;;;13.10;99.90;;;;;;4999771;28;20044;-69
2023/03/24 11:43:23;;;;;;;16.15;3.33;;;13.10;99.90;;;;;;4999355;28;20053;-69
2023/03/24 11:46:12;;;;;;;15.38;2.75;;;13.20;99.90;;;;;;4999427;28;20056;-69
2023/03/24 11:48:48;;;;;;;17.98;2.45;;;13.20;99.90;;;;;;4977257;28;20061;-67
2023/03/24 11:51:31;;;;;;;19.35;2.70;;;13.10;99.90;;;;;;4987402;28;20424;-68
2023/03/24 11:53:59;;;;;;;16.85;3.47;;;13.00;99.90;;;;;;5015198;23;20080;-72
2023/03/24 11:56:30;;;;;;;20.48;4.30;;;13.00;99.90;;;;;;4975491;28;20047;-71
2023/03/24 11:59:38;;;;;;;13.90;2.20;;;13.10;99.90;;;;;;4981077;28;20044;-71
2023/03/24 12:02:16;;;;;;;17.95;2.60;;;13.30;99.90;;;;;;4887585;29;20082;-72
2023/03/24 12:05:03;;;;;;;11.10;2.47;;;13.40;99.90;;;;;;4885005;29;20504;-72
2023/03/24 12:07:55;;;;;;;18.15;3.28;;;13.30;99.90;;;;;;4947230;28;20102;-72
2023/03/24 12:10:25;;;;;;;14.73;2.70;;;13.30;99.90;;;;;;4968260;28;20053;-72
2023/03/24 12:12:57;;;;;;;11.15;2.53;;;13.40;99.90;;;;;;4982754;28;20057;-70
2023/03/24 12:16:14;;;;;;;16.75;3.33;;;13.30;99.90;;;;;;4966950;28;20117;-69
2023/03/24 12:18:55;;;;;;;12.60;3.25;;;13.50;99.90;;;;;;4878017;29;20044;-72
2023/03/24 12:21:45;;;;;;;11.13;2.28;;;13.60;99.90;;;;;;4880420;29;20503;-74
2023/03/24 12:24:22;;;;;;;14.18;3.10;;;13.60;99.90;;;;;;4937558;28;20089;-71
2023/03/24 12:26:56;;;;;;;13.27;2.60;;;13.70;99.90;;;;;;4961606;28;20529;-71
2023/03/24 12:30:01;;;;;;;18.63;3.33;;;13.80;99.90;;;;;;4982653;28;20101;-72
2023/03/24 12:32:55;;;;;;;14.50;2.25;;;13.90;99.90;;;;;;4977536;28;20051;-71
2023/03/24 12:35:23;;;;;;;10.25;2.67;;;13.90;99.90;;;;;;4983336;28;20057;-71
2023/03/24 12:38:10;;;;;;;12.13;2.83;;;13.70;99.90;;;;;;4972446;28;20085;-72
2023/03/24 12:40:57;;;;;;;14.55;3.35;;;13.50;99.90;;;;;;4946775;28;20054;-71
2023/03/24 12:43:45;;;;;;;17.80;3.13;;;13.40;99.90;;;;;;4961502;28;20681;-71
2023/03/24 12:46:25;;;;;;;17.48;3.80;;;13.20;99.90;;;;;;4948850;28;20042;-72
2023/03/24 12:49:01;;;;;;;13.18;3.00;;;13.10;99.90;;;;;;4980719;28;20050;-71
2023/03/24 12:51:41;;;;;;;17.13;4.22;;;13.20;99.90;;;;;;4961973;28;20128;-71
2023/03/24 12:54:28;;;;;;;15.88;2.90;;;13.40;99.90;;;;;;4941960;28;20100;-71
2023/03/24 12:57:01;;;;;;;13.40;3.05;;;13.60;99.90;;;;;;4920486;28;20093;-71
2023/03/24 12:59:40;;;;;;;18.33;3.00;;;13.70;99.90;;;;;;4944074;28;20053;-71
2023/03/24 13:02:21;;;;;;;16.17;3.00;;;13.80;99.90;;;;;;4963932;28;20366;-72
2023/03/24 13:04:49;;;;;;;11.23;3.25;;;13.80;99.90;;;;;;4977965;28;20057;-72
2023/03/24 13:07:24;;;;;;;9.93;2.97;;;13.80;99.90;;;;;;4978794;28;20034;-72
2023/03/24 13:10:05;;;;;;;14.23;2.45;;;13.80;99.90;;;;;;4949999;28;20108;-72
2023/03/24 13:12:51;;;;;;;13.77;2.58;;;13.70;99.90;;;;;;4967988;28;20034;-72
2023/03/24 13:15:40;;;;;;;13.45;2.83;;;13.70;99.90;;;;;;4967818;28;20521;-72
2023/03/24 13:18:09;;;;;;;22.15;4.05;;;13.70;99.90;;;;;;4979072;28;20064;-71
2023/03/24 13:20:48;;;;;;;22.45;3.92;;;13.80;99.90;;;;;;4966701;28;20054;-70